Sikesville, Alabama
Current Conditions -  °F | °C
As of 5:55 PM on Saturday 22 Nov 2014 (Local Time) from KLGC Reporting Station
Overcast Overcast  
Wind Chill: 63°   Ceiling: 3200
Heat Index: 63°   Visibility: 10mi
Dew Point: 43°   Wind: 7mph
Humidity: 48%   Direction: 120°ESE
Pressure: 30.23"   Gusts: NA
Location:  33.1661°N, 85.5111°W
Report Text: KLGC 222355Z AUTO 12006KT 10SM OVC032 17/06 A3023 RMK AO2 T01720062 10207 20172
Loading
Personal Weather Stations






























Interactive Weather Map New forecast layout! Learn more

10-Day Weather Forecast

Advertisements
Track Severe Weather on mobile